Time;durP1;ratioP1;P1;durP2;ratioP2;P2;SDS_P1;SDS_P2;PMS_P1;PMS_P2;Temp;Humidity;BMP_temperature;BMP_pressure;BME280_temperature;BME280_humidity;BME280_pressure;Samples;Min_cycle;Max_cycle;Signal;HPM_P1;HPM_P2
2022/11/21 00:01:50;;;;;;;9.80;8.75;;;2.90;99.90;;;;;;5003067;28;20046;-76
2022/11/21 00:04:16;;;;;;;16.92;11.13;;;2.90;99.90;;;;;;5003825;28;20075;-78
2022/11/21 00:06:42;;;;;;;13.85;10.00;;;2.90;99.90;;;;;;5003618;28;20069;-76
2022/11/21 00:09:07;;;;;;;16.35;9.80;;;2.90;99.90;;;;;;5006159;28;20420;-77
2022/11/21 00:11:33;;;;;;;13.45;9.02;;;2.90;99.90;;;;;;5007653;28;20112;-79
2022/11/21 00:13:58;;;;;;;14.88;8.50;;;2.90;99.90;;;;;;5005879;28;20545;-79
2022/11/21 00:16:24;;;;;;;15.82;10.05;;;2.90;99.90;;;;;;5007027;28;20401;-78
2022/11/21 00:18:49;;;;;;;14.55;9.05;;;2.90;99.90;;;;;;5006887;28;20069;-78
2022/11/21 00:21:18;;;;;;;15.17;10.23;;;2.90;99.90;;;;;;5006538;28;20108;-78
2022/11/21 00:23:44;;;;;;;15.68;9.95;;;2.90;99.90;;;;;;5005943;28;20058;-79
2022/11/21 00:26:12;;;;;;;14.00;10.45;;;2.90;99.90;;;;;;5005759;28;20080;-77
2022/11/21 00:28:37;;;;;;;13.20;8.73;;;2.90;99.90;;;;;;5005480;28;20045;-77
2022/11/21 00:31:03;;;;;;;15.75;10.80;;;2.90;99.90;;;;;;5006887;28;20045;-76
2022/11/21 00:33:30;;;;;;;18.30;11.00;;;2.90;99.90;;;;;;5007092;28;20046;-76
2022/11/21 00:35:56;;;;;;;14.25;11.07;;;2.90;99.90;;;;;;5006738;28;20510;-78
2022/11/21 00:38:23;;;;;;;10.50;9.38;;;2.90;99.90;;;;;;5005351;28;20042;-76
2022/11/21 00:40:49;;;;;;;13.43;10.88;;;2.80;99.90;;;;;;5005677;28;20058;-77
2022/11/21 00:43:14;;;;;;;17.27;11.80;;;2.90;99.90;;;;;;5006376;28;20041;-78
2022/11/21 00:45:40;;;;;;;13.45;10.50;;;2.80;99.90;;;;;;5006520;28;20042;-78
2022/11/21 00:48:06;;;;;;;17.35;11.13;;;2.80;99.90;;;;;;5006447;28;20034;-78
2022/11/21 00:50:31;;;;;;;19.80;12.55;;;2.80;99.90;;;;;;5005333;28;21203;-76
2022/11/21 00:52:57;;;;;;;15.68;11.20;;;2.80;99.90;;;;;;5006798;28;20125;-76
2022/11/21 00:55:24;;;;;;;14.90;11.00;;;2.80;99.90;;;;;;5006853;28;20085;-78
2022/11/21 00:57:50;;;;;;;17.70;13.90;;;2.80;99.90;;;;;;5004043;28;20515;-77
2022/11/21 01:00:16;;;;;;;10.20;9.25;;;2.80;99.90;;;;;;5006812;28;20042;-78
2022/11/21 01:02:42;;;;;;;19.88;12.25;;;2.80;99.90;;;;;;5006103;28;20484;-75
2022/11/21 01:05:08;;;;;;;12.07;10.82;;;2.80;99.90;;;;;;4988911;28;20057;-79
2022/11/21 01:07:34;;;;;;;12.90;10.32;;;2.80;99.90;;;;;;5006268;28;20041;-78
2022/11/21 01:09:59;;;;;;;12.95;10.05;;;2.80;99.90;;;;;;5004782;28;20056;-77
2022/11/21 01:12:25;;;;;;;25.20;13.07;;;2.70;99.90;;;;;;5005585;28;20092;-76
2022/11/21 01:14:51;;;;;;;13.82;10.52;;;2.70;99.90;;;;;;5005806;28;20041;-77
2022/11/21 01:17:16;;;;;;;15.03;10.20;;;2.70;99.90;;;;;;5006576;28;20038;-78
2022/11/21 01:19:42;;;;;;;16.30;11.60;;;2.80;99.90;;;;;;5004187;28;20121;-78
2022/11/21 01:22:08;;;;;;;17.37;13.67;;;2.80;99.90;;;;;;5005790;28;20480;-78
2022/11/21 01:24:33;;;;;;;21.45;13.13;;;2.80;99.90;;;;;;5006076;28;20046;-78
2022/11/21 01:26:59;;;;;;;13.87;9.67;;;2.80;99.90;;;;;;5003346;28;20054;-76
2022/11/21 01:29:26;;;;;;;13.10;10.88;;;2.80;99.90;;;;;;5006195;28;20091;-77
2022/11/21 01:31:51;;;;;;;16.13;9.87;;;2.80;99.90;;;;;;5004537;28;20456;-77
2022/11/21 01:34:17;;;;;;;10.43;9.15;;;2.70;99.90;;;;;;5005005;28;20046;-76
2022/11/21 01:36:43;;;;;;;16.88;10.68;;;2.70;99.90;;;;;;5004985;28;20104;-78
2022/11/21 01:39:10;;;;;;;18.95;12.57;;;2.70;99.90;;;;;;5003963;28;20096;-79
2022/11/21 01:41:39;;;;;;;19.10;11.20;;;2.70;99.90;;;;;;5005766;28;20515;-78
2022/11/21 01:44:21;;;;;;;14.68;9.93;;;2.70;99.90;;;;;;5004570;28;20071;-76
2022/11/21 01:46:47;;;;;;;13.15;10.27;;;2.70;99.90;;;;;;5004797;28;20042;-77
2022/11/21 01:49:18;;;;;;;16.35;10.40;;;2.60;99.90;;;;;;5005689;28;20045;-79
2022/11/21 01:51:55;;;;;;;13.63;9.50;;;2.60;99.90;;;;;;5005281;28;20133;-79
2022/11/21 01:54:30;;;;;;;15.47;11.17;;;2.60;99.90;;;;;;5004616;28;20046;-77
2022/11/21 01:57:02;;;;;;;18.30;12.57;;;2.50;99.90;;;;;;5004645;28;20068;-79
2022/11/21 01:59:45;;;;;;;20.00;10.20;;;2.40;99.90;;;;;;5004181;28;20050;-78
2022/11/21 02:02:14;;;;;;;15.60;11.00;;;2.40;99.90;;;;;;5005119;28;20054;-78
2022/11/21 02:04:41;;;;;;;13.30;8.87;;;2.30;99.90;;;;;;5005228;28;20034;-76
2022/11/21 02:07:08;;;;;;;15.38;11.63;;;2.20;99.90;;;;;;5005154;28;20287;-77
2022/11/21 02:09:39;;;;;;;17.63;9.15;;;2.20;99.90;;;;;;5015614;28;20045;-79
2022/11/21 02:12:12;;;;;;;13.88;10.45;;;2.20;99.90;;;;;;5023966;28;20053;-78
2022/11/21 02:14:41;;;;;;;14.75;13.18;;;2.10;99.90;;;;;;5024915;28;20702;-77
2022/11/21 02:17:09;;;;;;;10.77;9.23;;;2.00;99.90;;;;;;5024556;28;20042;-77
2022/11/21 02:19:54;;;;;;;14.23;8.75;;;2.00;99.90;;;;;;5024908;28;20176;-75
2022/11/21 02:22:38;;;;;;;9.60;8.13;;;2.00;99.90;;;;;;5024785;28;20065;-77
2022/11/21 02:25:07;;;;;;;19.05;10.07;;;1.90;99.90;;;;;;5024498;28;20041;-78
2022/11/21 02:27:33;;;;;;;14.00;8.93;;;1.90;99.90;;;;;;5003215;28;20052;-78
2022/11/21 02:30:00;;;;;;;15.90;10.27;;;1.90;99.90;;;;;;5003220;28;20682;-76
2022/11/21 02:32:34;;;;;;;11.87;9.67;;;1.80;99.90;;;;;;5004064;28;20046;-76
2022/11/21 02:34:59;;;;;;;15.77;12.17;;;1.80;99.90;;;;;;5004480;28;20046;-79
2022/11/21 02:37:25;;;;;;;21.40;11.77;;;1.70;99.90;;;;;;5004579;28;20067;-75
2022/11/21 02:39:51;;;;;;;11.90;10.47;;;1.70;99.90;;;;;;5004431;28;20038;-76
2022/11/21 02:42:38;;;;;;;17.70;11.45;;;1.70;99.90;;;;;;5003561;28;20054;-76
2022/11/21 02:45:39;;;;;;;13.77;10.70;;;1.70;99.90;;;;;;5004361;28;20061;-75
2022/11/21 02:48:06;;;;;;;12.97;10.73;;;1.60;99.90;;;;;;4981452;28;20729;-77
2022/11/21 02:50:34;;;;;;;11.87;9.27;;;1.60;99.90;;;;;;5004611;28;20046;-75
2022/11/21 02:53:00;;;;;;;16.67;10.20;;;1.60;99.90;;;;;;5004140;28;20042;-77
2022/11/21 02:55:26;;;;;;;11.87;10.00;;;1.60;99.90;;;;;;5003458;28;20061;-77
2022/11/21 02:57:52;;;;;;;16.70;9.97;;;1.50;99.90;;;;;;5002388;28;20042;-77
2022/11/21 03:00:18;;;;;;;16.80;10.77;;;1.50;99.90;;;;;;5004450;28;20474;-78
2022/11/21 03:02:44;;;;;;;14.07;11.47;;;1.40;99.90;;;;;;5004734;28;20045;-78
2022/11/21 03:05:11;;;;;;;18.07;9.67;;;1.50;99.90;;;;;;5002579;28;20046;-77
2022/11/21 03:07:37;;;;;;;11.83;9.20;;;1.40;99.90;;;;;;5004299;28;20116;-79
2022/11/21 03:10:03;;;;;;;18.07;11.37;;;1.40;99.90;;;;;;5004066;28;20597;-77
2022/11/21 03:12:29;;;;;;;14.23;11.20;;;1.40;99.90;;;;;;5003112;28;20317;-78
2022/11/21 03:14:54;;;;;;;13.30;9.50;;;1.30;99.90;;;;;;5002739;28;20046;-76
2022/11/21 03:17:20;;;;;;;13.07;8.80;;;1.30;99.90;;;;;;5003953;28;20330;-75
2022/11/21 03:19:45;;;;;;;17.50;10.20;;;1.30;99.90;;;;;;5004464;28;20042;-78
2022/11/21 03:22:12;;;;;;;10.40;9.10;;;1.20;99.90;;;;;;5002809;28;20137;-75
2022/11/21 03:24:37;;;;;;;12.63;9.90;;;1.20;99.90;;;;;;5002503;28;20056;-78
2022/11/21 03:27:03;;;;;;;17.43;9.97;;;1.20;99.90;;;;;;5002825;28;20058;-77
2022/11/21 03:29:29;;;;;;;15.27;10.13;;;1.20;99.90;;;;;;5003610;28;20041;-78
2022/11/21 03:31:54;;;;;;;23.07;12.40;;;1.30;99.90;;;;;;5004003;28;20076;-76
2022/11/21 03:34:20;;;;;;;15.67;11.33;;;1.30;99.90;;;;;;5003625;28;20030;-77
2022/11/21 03:36:45;;;;;;;18.97;12.60;;;1.30;99.90;;;;;;5003982;28;20053;-78
2022/11/21 03:39:11;;;;;;;13.87;11.87;;;1.30;99.90;;;;;;5002123;28;20396;-78
2022/11/21 03:41:37;;;;;;;15.13;10.10;;;1.30;99.90;;;;;;5002618;28;20447;-77
2022/11/21 03:44:08;;;;;;;15.95;10.45;;;1.30;99.90;;;;;;5001495;28;20046;-78
2022/11/21 03:46:39;;;;;;;11.57;10.30;;;1.30;99.90;;;;;;5003463;28;20046;-78
2022/11/21 03:49:06;;;;;;;16.37;10.87;;;1.40;99.90;;;;;;5003261;28;20088;-78
2022/11/21 03:51:32;;;;;;;17.80;11.23;;;1.30;99.90;;;;;;5002611;28;20403;-78
2022/11/21 03:53:58;;;;;;;14.90;11.00;;;1.40;99.90;;;;;;5001762;28;20050;-75
2022/11/21 03:56:26;;;;;;;16.80;10.33;;;1.40;99.90;;;;;;5002226;28;20452;-78
2022/11/21 03:58:52;;;;;;;12.57;9.53;;;1.40;99.90;;;;;;5002760;28;20049;-79
2022/11/21 04:01:18;;;;;;;17.00;11.93;;;1.40;99.90;;;;;;5003455;28;20121;-78
2022/11/21 04:03:44;;;;;;;20.03;12.03;;;1.40;99.90;;;;;;5003585;28;20052;-78
2022/11/21 04:06:15;;;;;;;16.13;11.97;;;1.40;99.90;;;;;;5003174;28;20096;-77
2022/11/21 04:08:40;;;;;;;14.90;10.53;;;1.40;99.90;;;;;;5003401;28;20797;-76
2022/11/21 04:11:07;;;;;;;19.87;12.60;;;1.50;99.90;;;;;;5001585;28;20038;-76
2022/11/21 04:13:32;;;;;;;14.43;12.67;;;1.40;99.90;;;;;;5002841;28;20054;-75
2022/11/21 04:15:58;;;;;;;21.73;13.10;;;1.40;99.90;;;;;;5001981;28;20412;-76
2022/11/21 04:18:23;;;;;;;13.63;9.77;;;1.40;99.90;;;;;;5001936;28;20034;-79
2022/11/21 04:20:55;;;;;;;20.73;12.80;;;1.40;99.90;;;;;;5003137;28;20046;-76
2022/11/21 04:23:20;;;;;;;19.65;11.93;;;1.40;99.90;;;;;;5002080;28;20049;-78
2022/11/21 04:25:46;;;;;;;15.70;9.67;;;1.40;99.90;;;;;;5002677;28;20046;-78
2022/11/21 04:28:13;;;;;;;25.60;11.80;;;1.30;99.90;;;;;;5002026;28;20069;-79
2022/11/21 04:30:38;;;;;;;13.93;11.47;;;1.30;99.90;;;;;;5003113;28;20566;-79
2022/11/21 04:33:04;;;;;;;16.63;11.07;;;1.30;99.90;;;;;;5002938;28;20042;-75
2022/11/21 04:35:30;;;;;;;13.53;9.77;;;1.20;99.90;;;;;;5002644;28;20399;-77
2022/11/21 04:37:55;;;;;;;16.23;10.37;;;1.20;99.90;;;;;;5003099;28;20049;-77
2022/11/21 04:40:21;;;;;;;18.77;10.43;;;1.20;99.90;;;;;;5001796;28;20046;-77
2022/11/21 04:42:47;;;;;;;19.53;12.83;;;1.00;99.90;;;;;;5001509;28;20104;-78
2022/11/21 04:45:14;;;;;;;20.23;13.20;;;1.10;99.90;;;;;;5002923;28;20095;-78
2022/11/21 04:47:41;;;;;;;13.27;10.70;;;1.00;99.90;;;;;;5003032;28;20042;-78
2022/11/21 04:50:08;;;;;;;14.83;10.83;;;1.00;99.90;;;;;;5002618;28;20046;-79
2022/11/21 04:52:34;;;;;;;17.53;12.17;;;1.00;99.90;;;;;;5002948;28;20133;-78
2022/11/21 04:55:00;;;;;;;20.03;11.17;;;0.90;99.90;;;;;;5002173;28;20097;-78
2022/11/21 04:57:30;;;;;;;15.97;10.47;;;0.90;99.90;;;;;;5005747;28;20084;-75
2022/11/21 04:59:56;;;;;;;19.87;13.30;;;0.90;99.90;;;;;;5005285;28;20088;-78
2022/11/21 05:02:22;;;;;;;10.27;9.33;;;0.90;99.90;;;;;;5005126;28;20049;-78
2022/11/21 05:04:47;;;;;;;16.00;10.80;;;0.90;99.90;;;;;;5005368;28;20062;-77
2022/11/21 05:07:14;;;;;;;15.10;11.53;;;0.90;99.90;;;;;;5006565;28;20590;-77
2022/11/21 05:09:39;;;;;;;18.23;12.10;;;0.90;99.90;;;;;;5006571;28;20077;-77
2022/11/21 05:14:49;;;;;;;12.23;10.43;;;0.90;99.90;;;;;;5006080;28;20054;-80
2022/11/21 05:17:15;;;;;;;13.97;10.07;;;0.80;99.90;;;;;;5006521;28;20417;-79
2022/11/21 05:19:41;;;;;;;15.17;10.33;;;0.80;99.90;;;;;;5006074;28;20452;-78
2022/11/21 05:22:06;;;;;;;13.90;8.67;;;0.80;99.90;;;;;;5005690;28;20288;-78
2022/11/21 05:24:32;;;;;;;15.57;10.27;;;0.70;99.90;;;;;;5006343;28;20859;-76
2022/11/21 05:26:58;;;;;;;18.27;13.23;;;0.70;99.90;;;;;;5003831;28;20046;-77
2022/11/21 05:29:23;;;;;;;14.97;11.23;;;0.60;99.90;;;;;;5006607;28;20058;-75
2022/11/21 05:31:49;;;;;;;23.10;11.63;;;0.60;99.90;;;;;;5006294;28;20116;-76
2022/11/21 05:34:14;;;;;;;16.17;9.90;;;0.60;99.90;;;;;;5006078;28;20057;-78
2022/11/21 05:36:40;;;;;;;11.67;9.60;;;0.60;99.90;;;;;;5004374;28;20404;-78
2022/11/21 05:39:06;;;;;;;13.67;10.43;;;0.60;99.90;;;;;;5004123;28;20064;-75
2022/11/21 05:41:31;;;;;;;15.77;12.00;;;0.50;99.90;;;;;;5004907;28;20092;-76
2022/11/21 05:43:57;;;;;;;11.37;10.13;;;0.50;99.90;;;;;;5005742;28;20744;-75
2022/11/21 05:46:25;;;;;;;15.30;12.47;;;0.50;99.90;;;;;;5005767;28;20042;-75
2022/11/21 05:48:52;;;;;;;22.07;13.03;;;0.50;99.90;;;;;;5004320;28;20049;-76
2022/11/21 05:51:18;;;;;;;22.77;11.67;;;0.50;99.90;;;;;;5004527;28;20120;-76
2022/11/21 05:53:45;;;;;;;15.50;11.00;;;0.50;99.90;;;;;;5006073;28;20042;-78
2022/11/21 05:56:16;;;;;;;22.93;13.03;;;0.50;99.90;;;;;;5003530;28;20262;-76
2022/11/21 05:58:42;;;;;;;15.80;9.47;;;0.50;99.90;;;;;;5005991;28;20432;-76
2022/11/21 06:01:09;;;;;;;21.53;12.00;;;0.50;99.90;;;;;;5005214;28;20460;-77
2022/11/21 06:03:38;;;;;;;16.33;12.53;;;0.50;99.90;;;;;;5005419;28;20390;-78
2022/11/21 06:06:10;;;;;;;21.47;12.53;;;0.50;99.90;;;;;;5004890;28;20092;-75
2022/11/21 06:08:41;;;;;;;20.77;13.57;;;0.60;99.90;;;;;;5005258;28;20046;-76
2022/11/21 06:11:08;;;;;;;16.13;12.23;;;0.60;99.90;;;;;;5004221;28;20095;-76
2022/11/21 06:13:35;;;;;;;20.43;13.13;;;0.60;99.90;;;;;;5004893;28;20574;-76
2022/11/21 06:16:02;;;;;;;16.23;12.10;;;0.60;99.90;;;;;;5001899;28;20420;-76
2022/11/21 06:18:30;;;;;;;19.47;14.70;;;0.60;99.90;;;;;;5024008;28;20061;-75
2022/11/21 06:21:06;;;;;;;18.53;11.17;;;0.50;99.90;;;;;;5003801;28;20537;-77
2022/11/21 06:23:33;;;;;;;16.40;13.00;;;0.60;99.90;;;;;;5003504;28;20037;-78
2022/11/21 06:26:01;;;;;;;27.40;13.23;;;0.60;99.90;;;;;;4995361;28;20046;-77
2022/11/21 06:28:30;;;;;;;27.67;13.50;;;0.60;99.90;;;;;;4983068;28;20078;-75
2022/11/21 06:30:56;;;;;;;17.87;14.00;;;0.60;99.90;;;;;;4985974;28;20050;-78
2022/11/21 06:33:22;;;;;;;16.37;13.63;;;0.60;99.90;;;;;;5003944;28;20054;-76
2022/11/21 06:35:47;;;;;;;17.30;12.43;;;0.70;99.90;;;;;;4999364;28;20049;-77
2022/11/21 06:38:13;;;;;;;20.60;12.07;;;0.70;99.90;;;;;;5001184;28;20044;-76
2022/11/21 06:40:39;;;;;;;21.50;13.23;;;0.70;99.90;;;;;;5002770;28;20050;-76
2022/11/21 06:43:05;;;;;;;22.20;12.80;;;0.80;99.90;;;;;;5001593;28;20511;-76
2022/11/21 06:45:30;;;;;;;22.13;14.37;;;0.80;99.90;;;;;;5001004;28;20037;-78
2022/11/21 06:47:56;;;;;;;22.43;13.30;;;0.80;99.90;;;;;;4999986;28;20050;-77
2022/11/21 06:50:22;;;;;;;52.30;17.07;;;0.70;99.90;;;;;;5006619;28;20060;-77
2022/11/21 06:52:48;;;;;;;79.03;19.67;;;0.80;99.90;;;;;;5002352;28;20249;-76
2022/11/21 06:55:13;;;;;;;90.77;19.23;;;0.80;99.90;;;;;;5001483;28;20245;-75
2022/11/21 06:57:39;;;;;;;55.50;19.23;;;0.80;99.90;;;;;;5019187;28;20050;-76
2022/11/21 07:00:05;;;;;;;21.70;15.43;;;0.80;99.90;;;;;;5002656;28;20124;-75
2022/11/21 07:02:31;;;;;;;29.87;15.77;;;0.80;99.90;;;;;;5023388;28;20080;-76
2022/11/21 07:04:57;;;;;;;24.63;14.13;;;0.80;99.90;;;;;;5021565;28;20146;-74
2022/11/21 07:07:22;;;;;;;22.17;15.07;;;0.80;99.90;;;;;;5023015;28;20033;-75
2022/11/21 07:09:48;;;;;;;25.97;17.23;;;0.80;99.90;;;;;;5011826;28;20042;-75
2022/11/21 07:14:57;;;;;;;31.63;17.50;;;0.90;99.90;;;;;;4993718;28;20045;-75
2022/11/21 07:17:23;;;;;;;28.43;13.73;;;0.90;99.90;;;;;;5001453;28;20041;-75
2022/11/21 07:19:49;;;;;;;24.63;17.23;;;0.90;99.90;;;;;;5004904;28;20049;-74
2022/11/21 07:22:14;;;;;;;34.90;16.63;;;0.90;99.90;;;;;;5017779;28;20041;-76
2022/11/21 07:24:40;;;;;;;22.57;15.33;;;0.90;99.90;;;;;;5004161;28;20049;-77
2022/11/21 07:27:05;;;;;;;28.47;17.47;;;0.90;99.90;;;;;;4995823;28;20029;-76
2022/11/21 07:29:31;;;;;;;25.57;13.80;;;0.90;99.90;;;;;;5002043;28;20512;-76
2022/11/21 07:31:56;;;;;;;16.97;14.40;;;0.90;99.90;;;;;;5001847;28;20092;-76
2022/11/21 07:34:22;;;;;;;22.50;15.63;;;0.90;99.90;;;;;;5015333;28;20388;-75
2022/11/21 07:36:48;;;;;;;22.70;15.33;;;0.80;99.90;;;;;;5003150;28;20050;-76
2022/11/21 07:39:13;;;;;;;32.83;16.80;;;0.90;99.90;;;;;;5004857;28;20040;-77
2022/11/21 07:41:39;;;;;;;22.80;14.23;;;0.90;99.90;;;;;;5018616;28;20499;-74
2022/11/21 07:44:04;;;;;;;16.37;14.00;;;1.00;99.90;;;;;;5021101;28;20455;-77
2022/11/21 07:46:30;;;;;;;22.53;15.00;;;1.00;99.90;;;;;;5002251;28;20076;-77
2022/11/21 07:48:55;;;;;;;24.77;15.27;;;1.00;99.90;;;;;;5034183;28;20497;-74
2022/11/21 07:51:21;;;;;;;16.50;11.83;;;1.10;99.90;;;;;;5002616;28;20077;-76
2022/11/21 07:53:46;;;;;;;19.93;14.10;;;1.10;99.90;;;;;;5003021;28;20038;-77
2022/11/21 07:56:12;;;;;;;22.80;15.73;;;1.20;99.90;;;;;;5001695;28;20053;-75
2022/11/21 07:58:39;;;;;;;22.93;15.43;;;1.20;99.90;;;;;;5002248;28;20041;-77
2022/11/21 08:01:05;;;;;;;17.37;13.17;;;1.20;99.90;;;;;;5001857;28;20060;-74
2022/11/21 08:03:32;;;;;;;23.10;15.07;;;1.30;99.90;;;;;;5002220;28;20042;-77
2022/11/21 08:06:04;;;;;;;23.73;17.03;;;1.30;99.90;;;;;;5001713;28;20519;-77
2022/11/21 08:08:30;;;;;;;17.42;12.40;;;1.30;99.90;;;;;;5001164;28;20046;-77
2022/11/21 08:10:56;;;;;;;24.17;13.83;;;1.30;99.90;;;;;;5000605;28;20048;-76
2022/11/21 08:13:21;;;;;;;23.50;16.47;;;1.40;99.90;;;;;;5002117;28;20441;-78
2022/11/21 08:15:47;;;;;;;22.10;15.27;;;1.40;99.90;;;;;;5002780;28;20050;-76
2022/11/21 08:18:17;;;;;;;24.23;15.63;;;1.40;99.90;;;;;;5002164;28;20536;-74
2022/11/21 08:20:43;;;;;;;24.47;16.33;;;1.40;99.90;;;;;;5002444;28;20046;-75
2022/11/21 08:23:12;;;;;;;20.83;14.70;;;1.50;99.90;;;;;;5001761;28;20045;-74
2022/11/21 08:25:38;;;;;;;42.90;16.73;;;1.50;99.90;;;;;;5001101;28;20050;-75
2022/11/21 08:28:05;;;;;;;22.97;14.33;;;1.50;99.90;;;;;;5002219;28;20080;-76
2022/11/21 08:30:32;;;;;;;19.63;13.73;;;1.50;99.90;;;;;;5003697;28;20049;-75
2022/11/21 08:32:58;;;;;;;28.03;13.70;;;1.50;99.90;;;;;;5004419;28;20576;-77
2022/11/21 08:35:24;;;;;;;19.57;13.17;;;1.50;99.90;;;;;;5007123;28;20088;-77
2022/11/21 08:37:58;;;;;;;18.77;12.60;;;1.60;99.90;;;;;;5005551;28;20485;-77
2022/11/21 08:40:24;;;;;;;18.07;13.03;;;1.60;99.90;;;;;;5003776;28;20030;-76
2022/11/21 08:43:01;;;;;;;24.77;14.03;;;1.60;99.90;;;;;;5005316;28;20046;-76
2022/11/21 08:45:26;;;;;;;23.93;12.77;;;1.60;99.90;;;;;;5004205;28;20041;-77
2022/11/21 08:47:53;;;;;;;29.57;12.77;;;1.60;99.90;;;;;;5005729;28;20061;-77
2022/11/21 08:50:19;;;;;;;23.00;11.83;;;1.70;99.90;;;;;;5005993;28;20044;-75
2022/11/21 08:52:44;;;;;;;29.57;13.97;;;1.70;99.90;;;;;;5006097;28;20034;-76
2022/11/21 08:55:10;;;;;;;18.27;14.90;;;1.70;99.90;;;;;;5004353;28;20048;-76
2022/11/21 08:57:40;;;;;;;31.77;16.90;;;1.70;99.90;;;;;;4987210;28;20044;-78
2022/11/21 09:00:08;;;;;;;27.87;15.00;;;1.70;99.90;;;;;;5005337;28;20087;-77
2022/11/21 09:02:34;;;;;;;49.57;14.37;;;1.70;99.90;;;;;;5006950;28;20424;-77
2022/11/21 09:05:00;;;;;;;24.27;14.27;;;1.70;99.90;;;;;;5005757;28;20497;-76
2022/11/21 09:07:25;;;;;;;46.83;12.93;;;1.70;99.90;;;;;;5004056;28;20041;-77
2022/11/21 09:09:51;;;;;;;19.87;10.67;;;1.70;99.90;;;;;;5005147;28;20053;-78
2022/11/21 09:12:16;;;;;;;19.90;11.07;;;1.70;99.90;;;;;;5003204;28;20084;-77
2022/11/21 09:20:11;;;;;;;17.90;12.67;;;1.70;99.90;;;;;;5005485;28;20312;-76
2022/11/21 09:22:36;;;;;;;19.97;13.20;;;1.70;99.90;;;;;;5005832;28;20037;-75
2022/11/21 09:25:02;;;;;;;12.67;8.77;;;1.70;99.90;;;;;;5005650;28;20456;-76
2022/11/21 09:27:29;;;;;;;10.47;8.83;;;1.80;99.90;;;;;;4992053;28;20117;-77
2022/11/21 09:29:55;;;;;;;11.80;10.47;;;1.80;99.90;;;;;;5004606;28;20050;-76
2022/11/21 09:32:21;;;;;;;16.47;9.77;;;1.80;99.90;;;;;;5004646;28;20034;-78
2022/11/21 09:34:46;;;;;;;18.13;11.00;;;1.90;99.90;;;;;;5005082;28;20077;-78
2022/11/21 09:37:12;;;;;;;16.17;10.57;;;1.90;99.90;;;;;;5004729;28;20451;-75
2022/11/21 09:39:37;;;;;;;16.97;11.80;;;2.00;99.90;;;;;;5004973;28;20045;-76
2022/11/21 09:42:12;;;;;;;13.07;9.60;;;2.00;99.90;;;;;;5003337;28;20510;-75
2022/11/21 09:45:02;;;;;;;14.00;10.20;;;2.00;99.90;;;;;;5004300;28;20467;-74
2022/11/21 09:47:43;;;;;;;24.67;13.60;;;2.10;99.90;;;;;;4982149;28;20053;-75
2022/11/21 09:50:15;;;;;;;11.68;10.52;;;2.10;99.90;;;;;;4993496;28;20128;-78
2022/11/21 09:52:48;;;;;;;14.00;10.63;;;2.10;99.90;;;;;;5004724;28;20053;-77
2022/11/21 09:55:41;;;;;;;17.43;9.43;;;2.20;99.90;;;;;;5003886;28;20050;-77
2022/11/21 09:58:19;;;;;;;14.63;10.57;;;2.20;99.90;;;;;;5001564;28;20041;-76
2022/11/21 10:00:45;;;;;;;20.33;12.50;;;2.10;99.90;;;;;;5003255;28;20045;-76
2022/11/21 10:03:11;;;;;;;15.70;9.40;;;2.10;99.90;;;;;;5004297;28;20504;-76
2022/11/21 10:05:43;;;;;;;16.77;10.53;;;2.10;99.90;;;;;;5004771;28;20113;-77
2022/11/21 10:08:21;;;;;;;15.23;9.40;;;2.20;99.90;;;;;;5004028;28;20120;-77
2022/11/21 10:10:54;;;;;;;14.80;8.70;;;2.20;99.90;;;;;;5004398;28;20136;-76
2022/11/21 10:13:37;;;;;;;13.90;9.23;;;2.20;99.90;;;;;;5004434;28;20050;-76
2022/11/21 10:16:16;;;;;;;19.73;8.15;;;2.20;99.90;;;;;;5004600;28;20054;-76
2022/11/21 10:19:09;;;;;;;9.97;7.30;;;2.20;99.90;;;;;;5002914;28;20042;-77
2022/11/21 10:22:02;;;;;;;17.33;9.20;;;2.20;99.90;;;;;;5004048;28;20235;-75
2022/11/21 10:25:02;;;;;;;8.88;8.00;;;2.30;99.90;;;;;;5004401;28;20046;-78
2022/11/21 10:27:40;;;;;;;13.73;9.53;;;2.30;99.90;;;;;;5003022;28;20096;-77
2022/11/21 10:30:19;;;;;;;17.53;10.50;;;2.40;99.90;;;;;;5000862;28;20042;-77
2022/11/21 10:32:55;;;;;;;15.97;9.20;;;2.40;99.90;;;;;;5002275;28;20131;-76
2022/11/21 10:35:38;;;;;;;13.27;9.40;;;2.50;99.90;;;;;;5002351;28;20076;-78
2022/11/21 10:38:22;;;;;;;;;;;2.50;99.90;;;;;;5004200;28;20164;-77
2022/11/21 10:40:53;;;;;;;10.57;8.07;;;2.60;99.90;;;;;;5003334;28;19921;-75
2022/11/21 10:46:07;;;;;;;12.73;8.57;;;2.60;99.90;;;;;;5003138;28;20042;-77
2022/11/21 10:48:33;;;;;;;12.77;9.10;;;2.60;99.90;;;;;;5003149;28;20038;-77
2022/11/21 10:51:26;;;;;;;14.20;8.37;;;2.70;99.90;;;;;;5003075;28;20042;-78
2022/11/21 10:54:33;;;;;;;9.40;6.67;;;2.70;99.90;;;;;;4990660;28;20401;-76
2022/11/21 10:57:13;;;;;;;12.03;8.10;;;2.70;99.90;;;;;;4994362;28;20049;-77
2022/11/21 10:59:39;;;;;;;12.00;8.03;;;2.70;99.90;;;;;;5003284;28;20049;-78
2022/11/21 11:02:14;;;;;;;12.83;9.17;;;2.70;99.90;;;;;;5002869;28;20036;-79
2022/11/21 11:04:40;;;;;;;11.03;7.87;;;2.80;99.90;;;;;;5002507;28;20735;-81
2022/11/21 11:07:26;;;;;;;16.63;8.43;;;2.80;99.90;;;;;;5002107;28;20022;-79
2022/11/21 11:10:12;;;;;;;8.53;7.63;;;2.80;99.90;;;;;;5003158;28;20034;-80
2022/11/21 11:15:26;;;;;;;9.63;7.00;;;2.90;99.90;;;;;;4995925;28;20042;-76
2022/11/21 11:17:57;;;;;;;11.65;8.10;;;2.90;99.90;;;;;;5001899;28;20056;-78
2022/11/21 11:20:49;;;;;;;15.50;8.53;;;3.00;99.90;;;;;;5002112;28;20049;-80
2022/11/21 11:23:16;;;;;;;10.60;7.93;;;3.10;99.90;;;;;;5000776;28;20061;-77
2022/11/21 11:25:51;;;;;;;11.97;7.27;;;3.10;99.90;;;;;;5002492;28;20120;-77
2022/11/21 11:28:22;;;;;;;10.43;8.00;;;3.10;99.90;;;;;;5002050;28;20077;-81
2022/11/21 11:30:48;;;;;;;10.30;7.88;;;3.20;99.90;;;;;;5003457;28;20057;-76
2022/11/21 11:33:37;;;;;;;18.53;7.80;;;3.30;99.90;;;;;;5001990;28;20512;-81
2022/11/21 11:36:23;;;;;;;10.05;8.52;;;3.30;99.90;;;;;;5002172;28;20038;-79
2022/11/21 11:38:59;;;;;;;11.77;7.30;;;3.40;99.90;;;;;;5002817;28;20519;-77
2022/11/21 11:47:58;;;;;;;8.38;7.22;;;3.60;99.90;;;;;;5002994;28;20052;-78
2022/11/21 11:50:38;;;;;;;9.20;7.63;;;3.60;99.90;;;;;;5002750;28;20041;-78
2022/11/21 11:53:19;;;;;;;8.20;7.40;;;3.70;99.90;;;;;;5002580;28;20506;-78
2022/11/21 11:55:52;;;;;;;13.68;9.43;;;3.70;99.90;;;;;;5000401;28;20036;-79
2022/11/21 11:58:22;;;;;;;11.43;7.70;;;3.80;99.90;;;;;;5001206;28;20038;-78
2022/11/21 12:00:56;;;;;;;7.70;6.75;;;3.80;99.90;;;;;;5001787;28;20484;-80
2022/11/21 12:03:47;;;;;;;23.33;8.57;;;3.80;99.90;;;;;;4984412;28;20570;-78
2022/11/21 12:06:51;;;;;;;6.57;5.45;;;3.80;99.90;;;;;;5006813;28;20409;-77
2022/11/21 12:09:28;;;;;;;11.55;8.30;;;3.90;99.90;;;;;;4971366;28;20112;-77
2022/11/21 12:12:22;;;;;;;10.60;7.47;;;3.90;99.90;;;;;;4982309;28;20042;-81
2022/11/21 12:17:53;;;;;;;10.25;6.78;;;4.10;99.90;;;;;;5005276;28;20038;-80
2022/11/21 12:20:43;;;;;;;9.30;7.95;;;4.10;99.90;;;;;;5004839;28;20069;-75
2022/11/21 12:23:10;;;;;;;10.77;7.30;;;4.20;99.90;;;;;;5004855;28;20073;-79
2022/11/21 12:25:54;;;;;;;13.45;7.97;;;4.20;99.90;;;;;;5005538;28;20045;-78
2022/11/21 12:28:29;;;;;;;10.02;6.95;;;4.20;99.90;;;;;;5006473;28;20049;-80
2022/11/21 12:31:30;;;;;;;9.35;7.30;;;4.30;99.90;;;;;;5004257;28;20449;-77
2022/11/21 12:34:14;;;;;;;8.07;6.65;;;4.30;99.90;;;;;;4948588;28;20130;-79
2022/11/21 12:37:01;;;;;;;11.40;9.27;;;4.40;99.90;;;;;;5002446;28;20066;-78
2022/11/21 12:39:33;;;;;;;12.45;8.55;;;4.30;99.90;;;;;;5002206;28;20040;-80
2022/11/21 12:45:35;;;;;;;10.38;7.72;;;4.40;99.90;;;;;;5001419;28;20050;-80
2022/11/21 12:54:32;;;;;;;13.32;10.88;;;4.40;99.90;;;;;;4985948;28;20524;-75
2022/11/21 12:57:14;;;;;;;17.88;11.13;;;4.40;99.90;;;;;;4987823;28;20054;-78
2022/11/21 13:00:00;;;;;;;15.45;9.85;;;4.40;99.90;;;;;;5005820;28;20071;-78
2022/11/21 13:03:01;;;;;;;16.95;9.23;;;4.50;99.90;;;;;;5006045;28;20460;-78
2022/11/21 13:05:31;;;;;;;12.82;9.85;;;4.50;99.90;;;;;;4998983;28;20573;-79
2022/11/21 13:08:13;;;;;;;12.50;9.23;;;4.50;99.90;;;;;;5002926;28;20077;-80
2022/11/21 13:10:48;;;;;;;14.73;9.05;;;4.50;99.90;;;;;;4984732;28;20373;-77
2022/11/21 13:13:30;;;;;;;15.10;9.85;;;4.50;99.90;;;;;;4996890;28;20045;-80
2022/11/21 13:16:05;;;;;;;13.30;9.45;;;4.50;99.90;;;;;;5003667;28;20048;-79
2022/11/21 13:18:40;;;;;;;17.63;9.98;;;4.50;99.90;;;;;;5003583;28;20488;-79
2022/11/21 13:21:39;;;;;;;16.80;10.43;;;4.50;99.90;;;;;;5002440;28;20504;-80
2022/11/21 13:24:06;;;;;;;11.32;8.88;;;4.50;99.90;;;;;;5004769;28;20053;-76
2022/11/21 13:26:32;;;;;;;20.25;10.18;;;4.50;99.90;;;;;;4994833;28;20054;-76
2022/11/21 13:29:16;;;;;;;16.33;10.60;;;4.60;99.90;;;;;;5003555;28;20516;-78
2022/11/21 13:31:42;;;;;;;16.42;10.10;;;4.60;99.90;;;;;;5004647;28;20489;-76